sensor_id;sensor_type;location;lat;lon;timestamp;P1;durP1;ratioP1;P2;durP2;ratioP2
2756;SDS011;1386;50.862;6.494;2022-08-19T00:01:16;12.80;;;10.50;;
2756;SDS011;1386;50.862;6.494;2022-08-19T00:03:42;11.80;;;10.60;;
2756;SDS011;1386;50.862;6.494;2022-08-19T00:06:09;13.37;;;11.43;;
2756;SDS011;1386;50.862;6.494;2022-08-19T00:08:37;11.87;;;10.77;;
2756;SDS011;1386;50.862;6.494;2022-08-19T00:11:04;12.17;;;11.07;;
2756;SDS011;1386;50.862;6.494;2022-08-19T00:13:32;11.67;;;10.43;;
2756;SDS011;1386;50.862;6.494;2022-08-19T00:16:01;13.03;;;11.73;;
2756;SDS011;1386;50.862;6.494;2022-08-19T00:18:28;12.67;;;11.37;;
2756;SDS011;1386;50.862;6.494;2022-08-19T00:20:55;13.60;;;12.27;;
2756;SDS011;1386;50.862;6.494;2022-08-19T00:23:22;12.60;;;11.37;;
2756;SDS011;1386;50.862;6.494;2022-08-19T00:25:49;13.67;;;12.33;;
2756;SDS011;1386;50.862;6.494;2022-08-19T00:28:16;14.13;;;12.63;;
2756;SDS011;1386;50.862;6.494;2022-08-19T00:30:43;12.97;;;11.50;;
2756;SDS011;1386;50.862;6.494;2022-08-19T00:33:11;13.07;;;11.97;;
2756;SDS011;1386;50.862;6.494;2022-08-19T00:35:38;13.60;;;12.30;;
2756;SDS011;1386;50.862;6.494;2022-08-19T00:38:05;14.13;;;12.67;;
2756;SDS011;1386;50.862;6.494;2022-08-19T00:40:32;13.50;;;12.20;;
2756;SDS011;1386;50.862;6.494;2022-08-19T00:42:59;13.50;;;11.97;;
2756;SDS011;1386;50.862;6.494;2022-08-19T00:45:27;15.33;;;13.73;;
2756;SDS011;1386;50.862;6.494;2022-08-19T00:47:57;15.00;;;13.43;;
2756;SDS011;1386;50.862;6.494;2022-08-19T00:50:30;15.63;;;12.63;;
2756;SDS011;1386;50.862;6.494;2022-08-19T00:52:57;13.70;;;12.40;;
2756;SDS011;1386;50.862;6.494;2022-08-19T00:55:26;15.43;;;13.93;;
2756;SDS011;1386;50.862;6.494;2022-08-19T00:57:56;14.77;;;13.27;;
2756;SDS011;1386;50.862;6.494;2022-08-19T01:00:26;15.57;;;14.00;;
2756;SDS011;1386;50.862;6.494;2022-08-19T01:02:54;14.27;;;12.87;;
2756;SDS011;1386;50.862;6.494;2022-08-19T01:05:22;14.87;;;13.27;;
2756;SDS011;1386;50.862;6.494;2022-08-19T01:07:53;14.53;;;13.00;;
2756;SDS011;1386;50.862;6.494;2022-08-19T01:10:23;15.03;;;13.63;;
2756;SDS011;1386;50.862;6.494;2022-08-19T01:12:52;16.10;;;14.30;;
2756;SDS011;1386;50.862;6.494;2022-08-19T01:15:22;15.70;;;14.07;;
2756;SDS011;1386;50.862;6.494;2022-08-19T01:17:53;15.83;;;14.23;;
2756;SDS011;1386;50.862;6.494;2022-08-19T01:20:21;15.83;;;14.33;;
2756;SDS011;1386;50.862;6.494;2022-08-19T01:22:51;16.37;;;14.77;;
2756;SDS011;1386;50.862;6.494;2022-08-19T01:25:20;15.90;;;14.30;;
2756;SDS011;1386;50.862;6.494;2022-08-19T01:27:53;16.97;;;14.50;;
2756;SDS011;1386;50.862;6.494;2022-08-19T01:30:22;16.67;;;14.87;;
2756;SDS011;1386;50.862;6.494;2022-08-19T01:32:52;16.03;;;14.43;;
2756;SDS011;1386;50.862;6.494;2022-08-19T01:35:20;16.47;;;14.83;;
2756;SDS011;1386;50.862;6.494;2022-08-19T01:37:51;17.30;;;15.70;;
2756;SDS011;1386;50.862;6.494;2022-08-19T01:40:21;17.50;;;15.90;;
2756;SDS011;1386;50.862;6.494;2022-08-19T01:42:51;19.57;;;16.50;;
2756;SDS011;1386;50.862;6.494;2022-08-19T01:45:19;17.60;;;15.70;;
2756;SDS011;1386;50.862;6.494;2022-08-19T01:47:48;18.60;;;16.80;;
2756;SDS011;1386;50.862;6.494;2022-08-19T01:50:15;16.53;;;14.87;;
2756;SDS011;1386;50.862;6.494;2022-08-19T01:52:42;18.00;;;14.37;;
2756;SDS011;1386;50.862;6.494;2022-08-19T01:55:12;16.97;;;15.20;;
2756;SDS011;1386;50.862;6.494;2022-08-19T01:57:42;17.40;;;15.63;;
2756;SDS011;1386;50.862;6.494;2022-08-19T02:00:14;18.77;;;16.57;;
2756;SDS011;1386;50.862;6.494;2022-08-19T02:02:43;17.10;;;15.33;;
2756;SDS011;1386;50.862;6.494;2022-08-19T02:05:10;18.53;;;16.63;;
2756;SDS011;1386;50.862;6.494;2022-08-19T02:07:38;19.83;;;17.77;;
2756;SDS011;1386;50.862;6.494;2022-08-19T02:10:06;18.27;;;16.37;;
2756;SDS011;1386;50.862;6.494;2022-08-19T02:12:38;18.13;;;16.43;;
2756;SDS011;1386;50.862;6.494;2022-08-19T02:15:05;21.43;;;16.47;;
2756;SDS011;1386;50.862;6.494;2022-08-19T02:17:32;17.27;;;15.47;;
2756;SDS011;1386;50.862;6.494;2022-08-19T02:19:59;16.30;;;14.70;;
2756;SDS011;1386;50.862;6.494;2022-08-19T02:22:26;17.23;;;15.43;;
2756;SDS011;1386;50.862;6.494;2022-08-19T02:24:53;17.57;;;15.80;;
2756;SDS011;1386;50.862;6.494;2022-08-19T02:27:21;18.20;;;16.30;;
2756;SDS011;1386;50.862;6.494;2022-08-19T02:29:50;17.90;;;16.10;;
2756;SDS011;1386;50.862;6.494;2022-08-19T02:32:17;19.30;;;17.27;;
2756;SDS011;1386;50.862;6.494;2022-08-19T02:34:45;16.80;;;15.20;;
2756;SDS011;1386;50.862;6.494;2022-08-19T02:37:13;18.40;;;16.40;;
2756;SDS011;1386;50.862;6.494;2022-08-19T02:39:54;20.97;;;16.53;;
2756;SDS011;1386;50.862;6.494;2022-08-19T02:42:21;18.37;;;16.30;;
2756;SDS011;1386;50.862;6.494;2022-08-19T02:44:47;18.07;;;15.43;;
2756;SDS011;1386;50.862;6.494;2022-08-19T02:47:16;18.67;;;16.77;;
2756;SDS011;1386;50.862;6.494;2022-08-19T02:49:43;20.90;;;16.20;;
2756;SDS011;1386;50.862;6.494;2022-08-19T02:52:10;18.07;;;16.17;;
2756;SDS011;1386;50.862;6.494;2022-08-19T02:54:37;18.00;;;16.27;;
2756;SDS011;1386;50.862;6.494;2022-08-19T02:57:04;20.90;;;16.50;;
2756;SDS011;1386;50.862;6.494;2022-08-19T02:59:32;18.93;;;16.90;;
2756;SDS011;1386;50.862;6.494;2022-08-19T03:02:01;20.27;;;18.03;;
2756;SDS011;1386;50.862;6.494;2022-08-19T03:04:28;20.33;;;17.90;;
2756;SDS011;1386;50.862;6.494;2022-08-19T03:06:55;20.90;;;18.67;;
2756;SDS011;1386;50.862;6.494;2022-08-19T03:09:22;21.43;;;19.13;;
2756;SDS011;1386;50.862;6.494;2022-08-19T03:11:49;21.30;;;18.07;;
2756;SDS011;1386;50.862;6.494;2022-08-19T03:14:16;21.07;;;18.50;;
2756;SDS011;1386;50.862;6.494;2022-08-19T03:16:46;20.07;;;17.97;;
2756;SDS011;1386;50.862;6.494;2022-08-19T03:19:17;22.90;;;20.40;;
2756;SDS011;1386;50.862;6.494;2022-08-19T03:21:45;23.83;;;21.40;;
2756;SDS011;1386;50.862;6.494;2022-08-19T03:24:12;23.40;;;20.90;;
2756;SDS011;1386;50.862;6.494;2022-08-19T03:26:40;21.63;;;19.53;;
2756;SDS011;1386;50.862;6.494;2022-08-19T03:29:09;23.27;;;20.77;;
2756;SDS011;1386;50.862;6.494;2022-08-19T03:31:37;24.17;;;21.67;;
2756;SDS011;1386;50.862;6.494;2022-08-19T03:34:06;23.93;;;21.43;;
2756;SDS011;1386;50.862;6.494;2022-08-19T03:36:34;24.83;;;22.17;;
2756;SDS011;1386;50.862;6.494;2022-08-19T03:39:02;27.20;;;23.07;;
2756;SDS011;1386;50.862;6.494;2022-08-19T03:41:30;26.30;;;22.53;;
2756;SDS011;1386;50.862;6.494;2022-08-19T03:43:58;28.53;;;23.30;;
2756;SDS011;1386;50.862;6.494;2022-08-19T03:46:26;28.90;;;23.27;;
2756;SDS011;1386;50.862;6.494;2022-08-19T03:48:55;33.70;;;24.40;;
2756;SDS011;1386;50.862;6.494;2022-08-19T03:51:25;28.73;;;25.67;;
2756;SDS011;1386;50.862;6.494;2022-08-19T03:53:55;30.60;;;26.20;;
2756;SDS011;1386;50.862;6.494;2022-08-19T03:56:23;32.13;;;25.93;;
2756;SDS011;1386;50.862;6.494;2022-08-19T03:58:50;26.70;;;23.93;;
2756;SDS011;1386;50.862;6.494;2022-08-19T04:01:19;28.47;;;25.47;;
2756;SDS011;1386;50.862;6.494;2022-08-19T04:03:47;34.10;;;26.97;;
2756;SDS011;1386;50.862;6.494;2022-08-19T04:06:16;30.40;;;27.20;;
2756;SDS011;1386;50.862;6.494;2022-08-19T04:08:46;34.10;;;27.60;;
2756;SDS011;1386;50.862;6.494;2022-08-19T04:11:16;34.57;;;28.83;;
2756;SDS011;1386;50.862;6.494;2022-08-19T04:13:46;32.17;;;26.90;;
2756;SDS011;1386;50.862;6.494;2022-08-19T04:16:13;30.67;;;27.33;;
2756;SDS011;1386;50.862;6.494;2022-08-19T04:18:40;28.40;;;25.37;;
2756;SDS011;1386;50.862;6.494;2022-08-19T04:21:07;31.13;;;26.90;;
2756;SDS011;1386;50.862;6.494;2022-08-19T04:23:41;33.77;;;27.87;;
2756;SDS011;1386;50.862;6.494;2022-08-19T04:26:11;33.97;;;28.43;;
2756;SDS011;1386;50.862;6.494;2022-08-19T04:28:40;31.07;;;26.50;;
2756;SDS011;1386;50.862;6.494;2022-08-19T04:31:11;31.17;;;26.30;;
2756;SDS011;1386;50.862;6.494;2022-08-19T04:33:39;33.00;;;27.43;;
2756;SDS011;1386;50.862;6.494;2022-08-19T04:36:06;31.20;;;27.07;;
2756;SDS011;1386;50.862;6.494;2022-08-19T04:38:34;31.27;;;27.80;;
2756;SDS011;1386;50.862;6.494;2022-08-19T04:41:02;28.53;;;25.53;;
2756;SDS011;1386;50.862;6.494;2022-08-19T04:43:48;33.67;;;27.23;;
2756;SDS011;1386;50.862;6.494;2022-08-19T04:46:16;32.90;;;28.37;;
2756;SDS011;1386;50.862;6.494;2022-08-19T04:48:45;35.30;;;27.83;;
2756;SDS011;1386;50.862;6.494;2022-08-19T04:51:16;33.37;;;29.60;;
2756;SDS011;1386;50.862;6.494;2022-08-19T04:53:43;38.20;;;30.50;;
2756;SDS011;1386;50.862;6.494;2022-08-19T04:56:12;33.30;;;28.73;;
2756;SDS011;1386;50.862;6.494;2022-08-19T04:58:41;33.73;;;28.30;;
2756;SDS011;1386;50.862;6.494;2022-08-19T05:01:12;33.50;;;29.40;;
2756;SDS011;1386;50.862;6.494;2022-08-19T05:03:40;33.27;;;27.57;;
2756;SDS011;1386;50.862;6.494;2022-08-19T05:06:09;37.57;;;30.40;;
2756;SDS011;1386;50.862;6.494;2022-08-19T05:08:38;36.97;;;29.47;;
2756;SDS011;1386;50.862;6.494;2022-08-19T05:11:09;33.40;;;28.97;;
2756;SDS011;1386;50.862;6.494;2022-08-19T05:13:40;40.03;;;32.07;;
2756;SDS011;1386;50.862;6.494;2022-08-19T05:16:08;38.67;;;30.70;;
2756;SDS011;1386;50.862;6.494;2022-08-19T05:18:55;39.30;;;34.27;;
2756;SDS011;1386;50.862;6.494;2022-08-19T05:21:40;33.43;;;29.57;;
2756;SDS011;1386;50.862;6.494;2022-08-19T05:24:25;36.43;;;30.40;;
2756;SDS011;1386;50.862;6.494;2022-08-19T05:27:06;43.07;;;32.47;;
2756;SDS011;1386;50.862;6.494;2022-08-19T05:29:34;37.50;;;30.07;;
2756;SDS011;1386;50.862;6.494;2022-08-19T05:32:16;36.50;;;29.53;;
2756;SDS011;1386;50.862;6.494;2022-08-19T05:34:45;37.63;;;31.10;;
2756;SDS011;1386;50.862;6.494;2022-08-19T05:40:04;40.93;;;31.73;;
2756;SDS011;1386;50.862;6.494;2022-08-19T05:42:40;39.47;;;33.37;;
2756;SDS011;1386;50.862;6.494;2022-08-19T05:45:17;47.60;;;35.37;;
2756;SDS011;1386;50.862;6.494;2022-08-19T05:47:47;42.07;;;32.97;;
2756;SDS011;1386;50.862;6.494;2022-08-19T05:50:15;42.27;;;32.53;;
2756;SDS011;1386;50.862;6.494;2022-08-19T05:53:05;39.33;;;32.93;;
2756;SDS011;1386;50.862;6.494;2022-08-19T05:55:34;40.53;;;32.40;;
2756;SDS011;1386;50.862;6.494;2022-08-19T05:58:20;42.10;;;31.70;;
2756;SDS011;1386;50.862;6.494;2022-08-19T06:01:00;43.97;;;32.50;;
2756;SDS011;1386;50.862;6.494;2022-08-19T06:03:30;45.13;;;33.87;;
2756;SDS011;1386;50.862;6.494;2022-08-19T06:06:17;44.57;;;33.63;;
2756;SDS011;1386;50.862;6.494;2022-08-19T06:08:44;43.73;;;33.73;;
2756;SDS011;1386;50.862;6.494;2022-08-19T06:11:16;44.97;;;34.17;;
2756;SDS011;1386;50.862;6.494;2022-08-19T06:13:46;40.90;;;31.03;;
2756;SDS011;1386;50.862;6.494;2022-08-19T06:16:16;41.70;;;30.93;;
2756;SDS011;1386;50.862;6.494;2022-08-19T06:18:47;45.77;;;34.00;;
2756;SDS011;1386;50.862;6.494;2022-08-19T06:21:17;43.63;;;33.20;;
2756;SDS011;1386;50.862;6.494;2022-08-19T06:24:04;43.53;;;32.50;;
2756;SDS011;1386;50.862;6.494;2022-08-19T06:26:42;47.47;;;35.07;;
2756;SDS011;1386;50.862;6.494;2022-08-19T06:29:10;54.27;;;36.20;;
2756;SDS011;1386;50.862;6.494;2022-08-19T06:31:40;50.87;;;36.30;;
2756;SDS011;1386;50.862;6.494;2022-08-19T06:34:09;53.73;;;37.40;;
2756;SDS011;1386;50.862;6.494;2022-08-19T06:36:38;51.37;;;37.03;;
2756;SDS011;1386;50.862;6.494;2022-08-19T06:39:09;58.33;;;40.80;;
2756;SDS011;1386;50.862;6.494;2022-08-19T06:41:39;56.70;;;38.37;;
2756;SDS011;1386;50.862;6.494;2022-08-19T06:44:07;57.37;;;39.63;;
2756;SDS011;1386;50.862;6.494;2022-08-19T06:46:35;60.50;;;39.83;;
2756;SDS011;1386;50.862;6.494;2022-08-19T06:49:03;58.97;;;41.00;;
2756;SDS011;1386;50.862;6.494;2022-08-19T06:51:30;62.63;;;40.77;;
2756;SDS011;1386;50.862;6.494;2022-08-19T06:53:59;59.67;;;40.73;;
2756;SDS011;1386;50.862;6.494;2022-08-19T06:56:33;59.33;;;41.17;;
2756;SDS011;1386;50.862;6.494;2022-08-19T06:59:02;60.33;;;38.57;;
2756;SDS011;1386;50.862;6.494;2022-08-19T07:01:47;62.07;;;38.93;;
2756;SDS011;1386;50.862;6.494;2022-08-19T07:07:05;64.47;;;39.47;;
2756;SDS011;1386;50.862;6.494;2022-08-19T07:09:36;65.73;;;41.20;;
2756;SDS011;1386;50.862;6.494;2022-08-19T07:12:05;61.90;;;40.30;;
2756;SDS011;1386;50.862;6.494;2022-08-19T07:14:34;63.10;;;40.50;;
2756;SDS011;1386;50.862;6.494;2022-08-19T07:17:04;58.27;;;40.53;;
2756;SDS011;1386;50.862;6.494;2022-08-19T07:19:45;59.40;;;40.60;;
2756;SDS011;1386;50.862;6.494;2022-08-19T07:25:17;60.00;;;37.87;;
2756;SDS011;1386;50.862;6.494;2022-08-19T07:27:47;54.30;;;36.53;;
2756;SDS011;1386;50.862;6.494;2022-08-19T07:30:15;54.90;;;37.30;;
2756;SDS011;1386;50.862;6.494;2022-08-19T07:32:42;54.43;;;38.77;;
2756;SDS011;1386;50.862;6.494;2022-08-19T07:35:09;50.00;;;36.47;;
2756;SDS011;1386;50.862;6.494;2022-08-19T07:37:36;45.70;;;34.20;;
2756;SDS011;1386;50.862;6.494;2022-08-19T07:40:05;44.50;;;32.90;;
2756;SDS011;1386;50.862;6.494;2022-08-19T07:42:34;38.37;;;29.00;;
2756;SDS011;1386;50.862;6.494;2022-08-19T07:45:02;36.00;;;25.10;;
2756;SDS011;1386;50.862;6.494;2022-08-19T07:47:29;31.70;;;24.67;;
2756;SDS011;1386;50.862;6.494;2022-08-19T07:49:56;31.30;;;24.33;;
2756;SDS011;1386;50.862;6.494;2022-08-19T07:52:23;30.90;;;23.00;;
2756;SDS011;1386;50.862;6.494;2022-08-19T07:54:50;33.00;;;22.10;;
2756;SDS011;1386;50.862;6.494;2022-08-19T07:57:17;29.10;;;22.67;;
2756;SDS011;1386;50.862;6.494;2022-08-19T07:59:45;34.33;;;21.77;;
2756;SDS011;1386;50.862;6.494;2022-08-19T08:02:12;25.70;;;21.30;;
2756;SDS011;1386;50.862;6.494;2022-08-19T08:04:39;32.13;;;21.50;;
2756;SDS011;1386;50.862;6.494;2022-08-19T08:07:24;27.10;;;20.10;;
2756;SDS011;1386;50.862;6.494;2022-08-19T08:10:08;23.87;;;19.30;;
2756;SDS011;1386;50.862;6.494;2022-08-19T08:12:36;21.90;;;17.40;;
2756;SDS011;1386;50.862;6.494;2022-08-19T08:15:08;21.97;;;16.50;;
2756;SDS011;1386;50.862;6.494;2022-08-19T08:17:41;25.03;;;18.83;;
2756;SDS011;1386;50.862;6.494;2022-08-19T08:20:09;21.90;;;17.30;;
2756;SDS011;1386;50.862;6.494;2022-08-19T08:22:36;22.53;;;15.80;;
2756;SDS011;1386;50.862;6.494;2022-08-19T08:25:26;18.07;;;14.50;;
2756;SDS011;1386;50.862;6.494;2022-08-19T08:27:53;18.13;;;14.30;;
2756;SDS011;1386;50.862;6.494;2022-08-19T08:30:23;20.47;;;14.40;;
2756;SDS011;1386;50.862;6.494;2022-08-19T08:32:51;20.30;;;13.93;;
2756;SDS011;1386;50.862;6.494;2022-08-19T08:35:19;21.07;;;14.80;;
2756;SDS011;1386;50.862;6.494;2022-08-19T08:37:48;18.83;;;13.80;;
2756;SDS011;1386;50.862;6.494;2022-08-19T08:40:18;19.07;;;13.97;;
2756;SDS011;1386;50.862;6.494;2022-08-19T08:42:50;26.00;;;16.37;;
2756;SDS011;1386;50.862;6.494;2022-08-19T08:45:27;19.47;;;15.03;;
2756;SDS011;1386;50.862;6.494;2022-08-19T08:47:55;17.37;;;14.87;;
2756;SDS011;1386;50.862;6.494;2022-08-19T08:50:29;17.37;;;13.97;;
2756;SDS011;1386;50.862;6.494;2022-08-19T08:53:01;26.00;;;19.17;;
2756;SDS011;1386;50.862;6.494;2022-08-19T08:55:31;24.50;;;19.40;;
2756;SDS011;1386;50.862;6.494;2022-08-19T08:57:59;18.97;;;15.80;;
2756;SDS011;1386;50.862;6.494;2022-08-19T09:00:31;25.00;;;18.77;;
2756;SDS011;1386;50.862;6.494;2022-08-19T09:03:01;24.60;;;17.00;;
2756;SDS011;1386;50.862;6.494;2022-08-19T09:05:33;29.57;;;20.97;;
2756;SDS011;1386;50.862;6.494;2022-08-19T09:08:08;29.83;;;22.90;;
2756;SDS011;1386;50.862;6.494;2022-08-19T09:10:40;27.17;;;22.00;;
2756;SDS011;1386;50.862;6.494;2022-08-19T09:13:12;30.60;;;24.27;;
2756;SDS011;1386;50.862;6.494;2022-08-19T09:15:49;33.83;;;22.90;;
2756;SDS011;1386;50.862;6.494;2022-08-19T09:18:20;27.10;;;22.47;;
2756;SDS011;1386;50.862;6.494;2022-08-19T09:20:49;27.03;;;22.07;;
2756;SDS011;1386;50.862;6.494;2022-08-19T09:23:16;24.73;;;19.73;;
2756;SDS011;1386;50.862;6.494;2022-08-19T09:25:43;20.83;;;17.23;;
2756;SDS011;1386;50.862;6.494;2022-08-19T09:28:10;26.20;;;20.57;;
2756;SDS011;1386;50.862;6.494;2022-08-19T09:30:38;26.53;;;20.40;;
2756;SDS011;1386;50.862;6.494;2022-08-19T09:33:08;30.30;;;24.23;;
2756;SDS011;1386;50.862;6.494;2022-08-19T09:35:35;27.00;;;23.03;;
2756;SDS011;1386;50.862;6.494;2022-08-19T09:38:02;30.93;;;22.93;;
2756;SDS011;1386;50.862;6.494;2022-08-19T09:40:30;25.30;;;19.13;;
2756;SDS011;1386;50.862;6.494;2022-08-19T09:42:57;29.10;;;22.27;;
2756;SDS011;1386;50.862;6.494;2022-08-19T09:45:25;24.57;;;21.17;;
2756;SDS011;1386;50.862;6.494;2022-08-19T09:47:52;23.93;;;19.93;;
2756;SDS011;1386;50.862;6.494;2022-08-19T09:50:21;21.23;;;18.93;;
2756;SDS011;1386;50.862;6.494;2022-08-19T09:52:49;22.00;;;18.20;;
2756;SDS011;1386;50.862;6.494;2022-08-19T09:55:18;17.47;;;14.27;;
2756;SDS011;1386;50.862;6.494;2022-08-19T09:57:45;21.07;;;16.57;;
2756;SDS011;1386;50.862;6.494;2022-08-19T10:00:13;23.73;;;18.27;;
2756;SDS011;1386;50.862;6.494;2022-08-19T10:02:40;16.27;;;13.37;;
2756;SDS011;1386;50.862;6.494;2022-08-19T10:05:07;17.43;;;15.63;;
2756;SDS011;1386;50.862;6.494;2022-08-19T10:07:53;30.37;;;22.73;;
2756;SDS011;1386;50.862;6.494;2022-08-19T10:10:20;22.70;;;18.10;;
2756;SDS011;1386;50.862;6.494;2022-08-19T10:12:47;29.00;;;24.43;;
2756;SDS011;1386;50.862;6.494;2022-08-19T10:15:14;18.80;;;16.77;;
2756;SDS011;1386;50.862;6.494;2022-08-19T10:17:41;23.17;;;19.47;;
2756;SDS011;1386;50.862;6.494;2022-08-19T10:20:08;19.73;;;17.20;;
2756;SDS011;1386;50.862;6.494;2022-08-19T10:22:36;25.17;;;20.47;;
2756;SDS011;1386;50.862;6.494;2022-08-19T10:25:06;21.63;;;18.33;;
2756;SDS011;1386;50.862;6.494;2022-08-19T10:27:33;19.97;;;17.90;;
2756;SDS011;1386;50.862;6.494;2022-08-19T10:30:00;25.50;;;21.43;;
2756;SDS011;1386;50.862;6.494;2022-08-19T10:32:27;23.10;;;20.23;;
2756;SDS011;1386;50.862;6.494;2022-08-19T10:34:55;24.03;;;19.80;;
2756;SDS011;1386;50.862;6.494;2022-08-19T10:37:22;23.40;;;18.73;;
2756;SDS011;1386;50.862;6.494;2022-08-19T10:39:49;22.37;;;19.30;;
2756;SDS011;1386;50.862;6.494;2022-08-19T10:42:18;19.93;;;17.53;;
2756;SDS011;1386;50.862;6.494;2022-08-19T10:44:45;23.77;;;19.93;;
2756;SDS011;1386;50.862;6.494;2022-08-19T10:47:13;27.13;;;20.80;;
2756;SDS011;1386;50.862;6.494;2022-08-19T10:49:40;26.23;;;19.20;;
2756;SDS011;1386;50.862;6.494;2022-08-19T10:52:21;22.13;;;18.60;;
2756;SDS011;1386;50.862;6.494;2022-08-19T10:54:59;22.23;;;16.60;;
2756;SDS011;1386;50.862;6.494;2022-08-19T10:57:45;19.70;;;16.53;;
2756;SDS011;1386;50.862;6.494;2022-08-19T11:00:13;28.10;;;22.33;;
2756;SDS011;1386;50.862;6.494;2022-08-19T11:02:40;27.73;;;22.30;;
2756;SDS011;1386;50.862;6.494;2022-08-19T11:05:08;26.90;;;21.10;;
2756;SDS011;1386;50.862;6.494;2022-08-19T11:07:36;23.70;;;19.87;;
2756;SDS011;1386;50.862;6.494;2022-08-19T11:10:03;22.40;;;18.33;;
2756;SDS011;1386;50.862;6.494;2022-08-19T11:12:31;21.33;;;17.90;;
2756;SDS011;1386;50.862;6.494;2022-08-19T11:15:00;18.53;;;15.37;;
2756;SDS011;1386;50.862;6.494;2022-08-19T11:17:27;19.10;;;17.10;;
2756;SDS011;1386;50.862;6.494;2022-08-19T11:19:56;22.70;;;18.60;;
2756;SDS011;1386;50.862;6.494;2022-08-19T11:22:26;25.77;;;20.17;;
2756;SDS011;1386;50.862;6.494;2022-08-19T11:24:53;24.90;;;18.30;;
2756;SDS011;1386;50.862;6.494;2022-08-19T11:27:20;19.47;;;15.93;;
2756;SDS011;1386;50.862;6.494;2022-08-19T11:29:47;18.07;;;16.17;;
2756;SDS011;1386;50.862;6.494;2022-08-19T11:32:15;16.70;;;14.20;;
2756;SDS011;1386;50.862;6.494;2022-08-19T11:34:42;16.90;;;15.10;;
2756;SDS011;1386;50.862;6.494;2022-08-19T11:37:09;23.33;;;14.23;;
2756;SDS011;1386;50.862;6.494;2022-08-19T11:39:36;17.97;;;15.40;;
2756;SDS011;1386;50.862;6.494;2022-08-19T11:42:04;21.70;;;15.30;;
2756;SDS011;1386;50.862;6.494;2022-08-19T11:44:53;19.17;;;14.93;;
2756;SDS011;1386;50.862;6.494;2022-08-19T11:47:21;16.67;;;14.07;;
2756;SDS011;1386;50.862;6.494;2022-08-19T11:49:49;16.50;;;12.77;;
2756;SDS011;1386;50.862;6.494;2022-08-19T11:52:16;15.40;;;12.90;;
2756;SDS011;1386;50.862;6.494;2022-08-19T11:54:43;16.77;;;11.90;;
2756;SDS011;1386;50.862;6.494;2022-08-19T11:57:10;13.83;;;11.83;;
2756;SDS011;1386;50.862;6.494;2022-08-19T11:59:37;17.10;;;13.30;;
2756;SDS011;1386;50.862;6.494;2022-08-19T12:02:03;15.87;;;12.90;;
2756;SDS011;1386;50.862;6.494;2022-08-19T12:04:32;14.20;;;12.33;;
2756;SDS011;1386;50.862;6.494;2022-08-19T12:06:58;19.20;;;13.80;;
2756;SDS011;1386;50.862;6.494;2022-08-19T12:09:26;15.17;;;13.07;;
2756;SDS011;1386;50.862;6.494;2022-08-19T12:11:53;14.37;;;12.60;;
2756;SDS011;1386;50.862;6.494;2022-08-19T12:14:21;15.03;;;12.37;;
2756;SDS011;1386;50.862;6.494;2022-08-19T12:16:48;16.83;;;12.07;;
2756;SDS011;1386;50.862;6.494;2022-08-19T12:19:15;12.73;;;11.40;;
2756;SDS011;1386;50.862;6.494;2022-08-19T12:21:43;18.50;;;14.07;;
2756;SDS011;1386;50.862;6.494;2022-08-19T12:24:10;13.97;;;12.50;;
2756;SDS011;1386;50.862;6.494;2022-08-19T12:26:37;17.47;;;12.40;;
2756;SDS011;1386;50.862;6.494;2022-08-19T12:29:04;15.87;;;13.27;;
2756;SDS011;1386;50.862;6.494;2022-08-19T12:31:32;15.30;;;13.70;;
2756;SDS011;1386;50.862;6.494;2022-08-19T12:33:58;15.57;;;12.10;;
2756;SDS011;1386;50.862;6.494;2022-08-19T12:36:26;13.33;;;11.90;;
2756;SDS011;1386;50.862;6.494;2022-08-19T12:38:54;11.33;;;9.40;;
2756;SDS011;1386;50.862;6.494;2022-08-19T12:41:24;16.20;;;12.70;;
2756;SDS011;1386;50.862;6.494;2022-08-19T12:43:51;13.10;;;11.53;;
2756;SDS011;1386;50.862;6.494;2022-08-19T12:46:18;15.57;;;12.67;;
2756;SDS011;1386;50.862;6.494;2022-08-19T12:48:46;18.03;;;12.27;;
2756;SDS011;1386;50.862;6.494;2022-08-19T12:51:13;16.30;;;12.93;;
2756;SDS011;1386;50.862;6.494;2022-08-19T12:53:41;13.23;;;11.07;;
2756;SDS011;1386;50.862;6.494;2022-08-19T12:56:13;10.90;;;9.80;;
2756;SDS011;1386;50.862;6.494;2022-08-19T12:58:40;15.33;;;11.50;;
2756;SDS011;1386;50.862;6.494;2022-08-19T13:01:10;14.83;;;13.13;;
2756;SDS011;1386;50.862;6.494;2022-08-19T13:03:38;12.97;;;11.07;;
2756;SDS011;1386;50.862;6.494;2022-08-19T13:06:12;14.07;;;10.83;;
2756;SDS011;1386;50.862;6.494;2022-08-19T13:08:40;17.80;;;12.90;;
2756;SDS011;1386;50.862;6.494;2022-08-19T13:11:09;14.30;;;11.50;;
2756;SDS011;1386;50.862;6.494;2022-08-19T13:13:40;12.50;;;10.03;;
2756;SDS011;1386;50.862;6.494;2022-08-19T13:16:09;11.00;;;8.90;;
2756;SDS011;1386;50.862;6.494;2022-08-19T13:18:37;11.77;;;9.27;;
2756;SDS011;1386;50.862;6.494;2022-08-19T13:21:06;8.70;;;7.80;;
2756;SDS011;1386;50.862;6.494;2022-08-19T13:23:34;10.93;;;8.00;;
2756;SDS011;1386;50.862;6.494;2022-08-19T13:26:03;11.00;;;9.87;;
2756;SDS011;1386;50.862;6.494;2022-08-19T13:28:31;8.90;;;8.00;;
2756;SDS011;1386;50.862;6.494;2022-08-19T13:31:16;10.17;;;6.63;;
2756;SDS011;1386;50.862;6.494;2022-08-19T13:34:01;9.20;;;6.93;;
2756;SDS011;1386;50.862;6.494;2022-08-19T13:36:28;12.00;;;6.77;;
2756;SDS011;1386;50.862;6.494;2022-08-19T13:38:55;5.20;;;4.70;;
2756;SDS011;1386;50.862;6.494;2022-08-19T13:41:22;6.70;;;5.10;;
2756;SDS011;1386;50.862;6.494;2022-08-19T13:43:49;6.17;;;4.60;;
2756;SDS011;1386;50.862;6.494;2022-08-19T13:46:18;5.10;;;3.73;;
2756;SDS011;1386;50.862;6.494;2022-08-19T13:48:46;3.90;;;3.37;;
2756;SDS011;1386;50.862;6.494;2022-08-19T13:51:13;4.83;;;3.30;;
2756;SDS011;1386;50.862;6.494;2022-08-19T13:53:41;4.60;;;3.70;;
2756;SDS011;1386;50.862;6.494;2022-08-19T13:56:09;5.53;;;3.47;;
2756;SDS011;1386;50.862;6.494;2022-08-19T13:58:40;9.30;;;3.80;;
2756;SDS011;1386;50.862;6.494;2022-08-19T14:01:07;4.00;;;3.60;;
2756;SDS011;1386;50.862;6.494;2022-08-19T14:03:36;6.10;;;3.43;;
2756;SDS011;1386;50.862;6.494;2022-08-19T14:06:03;4.17;;;3.43;;
2756;SDS011;1386;50.862;6.494;2022-08-19T14:08:30;4.50;;;3.00;;
2756;SDS011;1386;50.862;6.494;2022-08-19T14:10:58;3.57;;;3.03;;
2756;SDS011;1386;50.862;6.494;2022-08-19T14:13:25;4.40;;;2.97;;
2756;SDS011;1386;50.862;6.494;2022-08-19T14:15:52;4.40;;;3.07;;
2756;SDS011;1386;50.862;6.494;2022-08-19T14:18:19;3.80;;;3.30;;
2756;SDS011;1386;50.862;6.494;2022-08-19T14:20:51;3.53;;;3.23;;
2756;SDS011;1386;50.862;6.494;2022-08-19T14:23:19;3.90;;;2.87;;
2756;SDS011;1386;50.862;6.494;2022-08-19T14:25:46;5.10;;;3.50;;
2756;SDS011;1386;50.862;6.494;2022-08-19T14:28:13;4.77;;;3.50;;
2756;SDS011;1386;50.862;6.494;2022-08-19T14:30:41;3.60;;;2.97;;
2756;SDS011;1386;50.862;6.494;2022-08-19T14:33:09;5.80;;;3.67;;
2756;SDS011;1386;50.862;6.494;2022-08-19T14:35:36;7.37;;;3.13;;
2756;SDS011;1386;50.862;6.494;2022-08-19T14:38:05;5.03;;;2.57;;
2756;SDS011;1386;50.862;6.494;2022-08-19T14:40:41;3.70;;;3.13;;
2756;SDS011;1386;50.862;6.494;2022-08-19T14:43:08;4.70;;;3.47;;
2756;SDS011;1386;50.862;6.494;2022-08-19T14:45:36;3.70;;;2.90;;
2756;SDS011;1386;50.862;6.494;2022-08-19T14:48:04;4.53;;;3.00;;
2756;SDS011;1386;50.862;6.494;2022-08-19T14:50:34;4.30;;;3.00;;
2756;SDS011;1386;50.862;6.494;2022-08-19T14:53:02;4.67;;;2.47;;
2756;SDS011;1386;50.862;6.494;2022-08-19T14:55:32;5.03;;;3.37;;
2756;SDS011;1386;50.862;6.494;2022-08-19T14:57:59;3.33;;;2.57;;
2756;SDS011;1386;50.862;6.494;2022-08-19T15:00:27;4.00;;;2.77;;
2756;SDS011;1386;50.862;6.494;2022-08-19T15:02:54;6.53;;;2.80;;
2756;SDS011;1386;50.862;6.494;2022-08-19T15:05:21;3.80;;;2.70;;
2756;SDS011;1386;50.862;6.494;2022-08-19T15:07:48;2.83;;;2.40;;
2756;SDS011;1386;50.862;6.494;2022-08-19T15:10:17;3.30;;;2.27;;
2756;SDS011;1386;50.862;6.494;2022-08-19T15:12:44;3.77;;;2.43;;